createdAt,value
2019-02-15T00:00:48.053Z,4.00
2019-02-15T00:03:20.577Z,2.60
2019-02-15T00:05:53.204Z,3.60
2019-02-15T00:08:25.622Z,2.00
2019-02-15T00:10:58.161Z,3.20
2019-02-15T00:13:30.728Z,3.20
2019-02-15T00:16:03.115Z,2.00
2019-02-15T00:18:36.995Z,3.20
2019-02-15T00:21:14.793Z,2.20
2019-02-15T00:23:47.429Z,2.00
2019-02-15T00:26:19.833Z,2.80
2019-02-15T00:28:52.503Z,2.00
2019-02-15T00:31:25.082Z,0.60
2019-02-15T00:33:57.597Z,3.00
2019-02-15T00:36:30.016Z,1.00
2019-02-15T00:39:02.526Z,2.40
2019-02-15T00:41:36.341Z,2.60
2019-02-15T00:44:09.105Z,1.80
2019-02-15T00:46:42.839Z,1.00
2019-02-15T00:49:16.621Z,2.60
2019-02-15T00:51:53.119Z,1.00
2019-02-15T00:54:26.858Z,1.40
2019-02-15T00:57:03.255Z,2.40
2019-02-15T00:59:46.335Z,1.60
2019-02-15T01:02:26.301Z,2.40
2019-02-15T01:05:05.937Z,2.40
2019-02-15T01:07:42.877Z,1.00
2019-02-15T01:10:22.745Z,1.00
2019-02-15T01:12:57.456Z,1.60
2019-02-15T01:15:29.915Z,1.00
2019-02-15T01:18:03.065Z,1.00
2019-02-15T01:20:36.436Z,2.00
2019-02-15T01:23:09.809Z,2.00
2019-02-15T01:25:45.631Z,1.20
2019-02-15T01:28:21.732Z,2.00
2019-02-15T01:30:57.624Z,2.00
2019-02-15T01:33:35.822Z,1.80
2019-02-15T01:36:15.565Z,1.40
2019-02-15T01:38:55.952Z,1.80
2019-02-15T01:41:48.854Z,1.60
2019-02-15T01:44:34.634Z,1.40
2019-02-15T01:47:08.443Z,1.40
2019-02-15T01:49:41.182Z,2.00
2019-02-15T01:52:14.632Z,1.20
2019-02-15T01:54:47.037Z,0.40
2019-02-15T01:57:19.484Z,1.00
2019-02-15T01:59:51.946Z,0.80
2019-02-15T02:02:25.886Z,0.00
2019-02-15T02:04:58.484Z,0.60
2019-02-15T02:07:31.305Z,0.00
2019-02-15T02:10:04.317Z,0.40
2019-02-15T02:12:37.079Z,0.00
2019-02-15T02:15:11.797Z,0.00
2019-02-15T02:17:46.629Z,0.00
2019-02-15T02:20:19.166Z,0.00
2019-02-15T02:22:56.799Z,0.00
2019-02-15T02:25:31.645Z,0.20
2019-02-15T02:28:04.111Z,0.00
2019-02-15T02:30:36.954Z,0.20
2019-02-15T02:33:12.023Z,0.00
2019-02-15T02:35:49.275Z,0.00
2019-02-15T02:38:21.378Z,0.00
2019-02-15T02:40:58.942Z,0.00
2019-02-15T02:43:34.212Z,0.00
2019-02-15T02:46:11.257Z,0.00
2019-02-15T02:48:43.826Z,0.00
2019-02-15T02:51:17.954Z,0.00
2019-02-15T02:53:50.642Z,0.00
2019-02-15T02:56:32.040Z,0.00
2019-02-15T02:59:04.719Z,0.00
2019-02-15T03:01:38.390Z,0.00
2019-02-15T03:04:12.367Z,0.00
2019-02-15T03:06:46.691Z,0.00
2019-02-15T03:09:19.246Z,0.00
2019-02-15T03:11:52.065Z,0.00
2019-02-15T03:14:24.616Z,0.00
2019-02-15T03:16:57.316Z,0.00
2019-02-15T03:19:29.737Z,0.00
2019-02-15T03:22:02.182Z,0.00
2019-02-15T03:24:34.945Z,0.00
2019-02-15T03:27:07.515Z,0.00
2019-02-15T03:29:40.338Z,0.00
2019-02-15T03:32:12.723Z,0.00
2019-02-15T03:34:45.321Z,0.00
2019-02-15T03:37:31.465Z,0.00
2019-02-15T03:40:06.876Z,0.00
2019-02-15T03:42:39.473Z,0.00
2019-02-15T03:45:12.181Z,0.00
2019-02-15T03:47:44.567Z,0.00
2019-02-15T03:50:17.070Z,0.00
2019-02-15T03:52:49.637Z,0.00
2019-02-15T03:55:22.022Z,0.40
2019-02-15T03:57:54.619Z,2.00
2019-02-15T04:00:27.254Z,1.80
2019-02-15T04:03:00.129Z,3.20
2019-02-15T04:05:32.797Z,4.00
2019-02-15T04:08:05.278Z,7.00
2019-02-15T04:10:38.137Z,7.00
2019-02-15T04:13:10.968Z,6.00
2019-02-15T04:15:43.841Z,9.40
2019-02-15T04:18:16.318Z,7.00
2019-02-15T04:20:48.714Z,8.60
2019-02-15T04:23:21.377Z,6.00
2019-02-15T04:25:54.617Z,5.20
2019-02-15T04:28:27.255Z,8.20
2019-02-15T04:30:59.956Z,8.80
2019-02-15T04:33:32.559Z,8.40
2019-02-15T04:36:05.345Z,8.80
2019-02-15T04:38:37.830Z,7.40
2019-02-15T04:41:10.259Z,8.60
2019-02-15T04:43:42.785Z,5.40
2019-02-15T04:46:15.409Z,4.40
2019-02-15T04:48:48.205Z,3.60
2019-02-15T04:51:20.861Z,2.40
2019-02-15T04:53:53.243Z,1.60
2019-02-15T04:56:25.649Z,1.40
2019-02-15T04:58:58.000Z,2.00
2019-02-15T05:01:30.403Z,1.20
2019-02-15T05:04:03.176Z,1.00
2019-02-15T05:06:36.061Z,2.00
2019-02-15T05:09:08.950Z,1.60
2019-02-15T05:11:41.447Z,1.00
2019-02-15T05:14:14.273Z,1.00
2019-02-15T05:16:46.678Z,1.20
2019-02-15T05:19:19.015Z,1.60
2019-02-15T05:21:51.604Z,1.80
2019-02-15T05:24:23.981Z,1.40
2019-02-15T05:26:56.533Z,1.60
2019-02-15T05:29:28.916Z,2.00
2019-02-15T05:32:01.326Z,2.00
2019-02-15T05:34:33.772Z,1.00
2019-02-15T05:37:06.361Z,1.00
2019-02-15T05:39:38.822Z,1.60
2019-02-15T05:42:11.339Z,1.00
2019-02-15T05:44:43.819Z,1.40
2019-02-15T05:47:16.430Z,1.80
2019-02-15T05:49:49.365Z,2.80
2019-02-15T05:52:21.739Z,1.20
2019-02-15T05:54:54.092Z,1.80
2019-02-15T05:57:26.559Z,2.00
2019-02-15T05:59:59.218Z,1.00
2019-02-15T06:02:31.598Z,1.00
2019-02-15T06:05:03.962Z,1.00
2019-02-15T06:07:36.593Z,1.00
2019-02-15T06:10:10.150Z,1.00
2019-02-15T06:12:42.534Z,1.00
2019-02-15T06:15:15.811Z,1.40
2019-02-15T06:17:48.336Z,1.00
2019-02-15T06:20:20.690Z,1.40
2019-02-15T06:22:53.076Z,2.00
2019-02-15T06:25:25.557Z,1.20
2019-02-15T06:27:58.144Z,1.60
2019-02-15T06:30:30.500Z,1.20
2019-02-15T06:33:03.209Z,0.40
2019-02-15T06:35:35.585Z,1.00
2019-02-15T06:38:08.121Z,2.00
2019-02-15T06:40:40.498Z,1.00
2019-02-15T06:43:13.329Z,1.00
2019-02-15T06:45:46.257Z,2.20
2019-02-15T06:48:18.660Z,2.00
2019-02-15T06:50:51.010Z,0.60
2019-02-15T06:53:23.396Z,0.00
2019-02-15T06:55:55.753Z,1.00
2019-02-15T06:58:28.231Z,0.20
2019-02-15T07:01:16.860Z,1.00
2019-02-15T07:03:53.377Z,1.00
2019-02-15T07:06:25.740Z,0.60
2019-02-15T07:08:58.304Z,0.60
2019-02-15T07:11:30.664Z,0.00
2019-02-15T07:14:03.083Z,1.00
2019-02-15T07:16:36.246Z,0.00
2019-02-15T07:19:08.732Z,1.00
2019-02-15T07:21:41.108Z,1.00
2019-02-15T07:24:13.499Z,0.80
2019-02-15T07:26:45.970Z,0.60
2019-02-15T07:29:18.564Z,1.20
2019-02-15T07:31:51.274Z,0.80
2019-02-15T07:34:23.782Z,0.80
2019-02-15T07:36:56.129Z,0.60
2019-02-15T07:39:28.698Z,1.40
2019-02-15T07:42:01.034Z,1.00
2019-02-15T07:44:33.522Z,0.40
2019-02-15T07:47:05.890Z,0.00
2019-02-15T07:49:38.278Z,1.00
2019-02-15T07:52:10.736Z,0.00
2019-02-15T07:54:43.117Z,0.60
2019-02-15T07:57:15.687Z,1.00
2019-02-15T07:59:48.070Z,0.00
2019-02-15T08:02:20.530Z,0.00
2019-02-15T08:04:53.278Z,0.00
2019-02-15T08:07:25.722Z,0.00
2019-02-15T08:09:58.260Z,0.00
2019-02-15T08:12:30.611Z,0.00
2019-02-15T08:15:03.107Z,0.20
2019-02-15T08:17:35.897Z,0.00
2019-02-15T08:20:12.563Z,0.00
2019-02-15T08:22:45.115Z,0.00
2019-02-15T08:25:17.498Z,0.00
2019-02-15T08:27:49.859Z,0.00
2019-02-15T08:30:22.530Z,0.00
2019-02-15T08:32:54.976Z,0.00
2019-02-15T08:35:27.351Z,0.00
2019-02-15T08:38:00.115Z,0.20
2019-02-15T08:40:32.683Z,0.00
2019-02-15T08:43:05.026Z,0.00
2019-02-15T08:45:37.401Z,0.00
2019-02-15T08:48:09.834Z,0.00
2019-02-15T08:50:42.222Z,0.00
2019-02-15T08:53:14.571Z,0.00
2019-02-15T08:55:47.484Z,0.00
2019-02-15T08:58:19.839Z,0.00
2019-02-15T09:00:52.217Z,0.00
2019-02-15T09:03:24.918Z,0.00
2019-02-15T09:05:57.393Z,0.00
2019-02-15T09:08:30.172Z,0.00
2019-02-15T09:11:02.892Z,0.00
2019-02-15T09:13:35.333Z,0.00
2019-02-15T09:16:10.498Z,0.00
2019-02-15T09:18:41.865Z,0.00
2019-02-15T09:21:14.235Z,0.00
2019-02-15T09:23:46.584Z,0.00
2019-02-15T09:26:19.070Z,0.00
2019-02-15T09:28:52.775Z,0.00
2019-02-15T09:31:25.429Z,0.00
2019-02-15T09:33:57.771Z,0.00
2019-02-15T09:36:30.109Z,0.00
2019-02-15T09:39:02.567Z,0.00
2019-02-15T09:41:36.827Z,0.00
2019-02-15T09:44:09.200Z,0.00
2019-02-15T09:46:41.690Z,0.00
2019-02-15T09:49:14.034Z,0.00
2019-02-15T09:51:46.427Z,0.00
2019-02-15T09:54:18.899Z,0.00
2019-02-15T09:56:51.287Z,0.00
2019-02-15T09:59:23.648Z,0.00
2019-02-15T10:01:56.006Z,0.00
2019-02-15T10:04:28.374Z,0.00
2019-02-15T10:07:01.749Z,0.00
2019-02-15T10:09:34.069Z,0.00
2019-02-15T10:12:06.719Z,0.00
2019-02-15T10:14:39.054Z,0.00
2019-02-15T10:17:11.434Z,0.00
2019-02-15T10:19:44.158Z,0.00
2019-02-15T10:22:16.840Z,0.00
2019-02-15T10:24:49.523Z,0.00
2019-02-15T10:27:22.399Z,0.00
2019-02-15T10:29:54.853Z,0.00
2019-02-15T10:32:27.526Z,0.00
2019-02-15T10:35:00.344Z,0.00
2019-02-15T10:37:32.874Z,0.00
2019-02-15T10:40:06.310Z,0.00
2019-02-15T10:42:38.875Z,0.00
2019-02-15T10:45:17.882Z,0.00
2019-02-15T10:47:50.346Z,0.00
2019-02-15T10:50:22.786Z,0.00
2019-02-15T10:52:55.361Z,0.00
2019-02-15T10:55:27.698Z,0.00
2019-02-15T10:58:00.082Z,0.00
2019-02-15T11:00:32.584Z,0.00
2019-02-15T11:03:05.269Z,0.00
2019-02-15T11:05:37.909Z,0.00
2019-02-15T11:08:10.292Z,0.00
2019-02-15T11:10:42.635Z,0.00
2019-02-15T11:13:15.463Z,0.00
2019-02-15T11:15:48.148Z,0.00
2019-02-15T11:18:20.587Z,0.00
2019-02-15T11:20:53.603Z,0.00
2019-02-15T11:23:26.264Z,0.00
2019-02-15T11:25:58.711Z,0.00
2019-02-15T11:28:31.066Z,0.00
2019-02-15T11:31:03.434Z,0.00
2019-02-15T11:33:35.989Z,0.00
2019-02-15T11:36:08.337Z,0.00
2019-02-15T11:38:40.733Z,0.00
2019-02-15T11:41:13.082Z,0.00
2019-02-15T11:43:45.737Z,0.00
2019-02-15T11:46:18.257Z,0.00
2019-02-15T11:48:50.664Z,0.00
2019-02-15T11:51:23.601Z,0.00
2019-02-15T11:53:56.281Z,0.00
2019-02-15T11:56:28.738Z,0.00
2019-02-15T11:59:01.461Z,0.00
2019-02-15T12:01:33.801Z,0.00
2019-02-15T12:04:06.955Z,0.00
2019-02-15T12:06:39.397Z,0.00
2019-02-15T12:09:11.757Z,0.00
2019-02-15T12:11:44.218Z,0.00
2019-02-15T12:14:16.779Z,0.00
2019-02-15T12:16:49.110Z,0.00
2019-02-15T12:19:21.566Z,0.00
2019-02-15T12:21:54.122Z,0.00
2019-02-15T12:24:26.524Z,0.00
2019-02-15T12:26:59.234Z,0.00
2019-02-15T12:29:31.639Z,0.00
2019-02-15T12:32:04.302Z,0.00
2019-02-15T12:34:36.718Z,0.00
2019-02-15T12:37:09.146Z,0.00
2019-02-15T12:39:41.858Z,0.00
2019-02-15T12:42:15.567Z,0.00
2019-02-15T12:44:48.804Z,0.00
2019-02-15T12:47:21.510Z,0.00
2019-02-15T12:49:55.674Z,0.00
2019-02-15T12:52:27.657Z,0.00
2019-02-15T12:55:00.504Z,0.00
2019-02-15T12:57:32.830Z,0.00
2019-02-15T13:00:06.420Z,0.00
2019-02-15T13:02:38.856Z,0.00
2019-02-15T13:05:12.410Z,0.00
2019-02-15T13:07:44.939Z,0.00
2019-02-15T13:10:24.861Z,0.00
2019-02-15T13:12:57.233Z,0.00
2019-02-15T13:15:30.030Z,0.00
2019-02-15T13:18:02.390Z,0.00
2019-02-15T13:20:34.987Z,0.00
2019-02-15T13:23:07.811Z,0.00
2019-02-15T13:25:40.262Z,0.00
2019-02-15T13:28:12.932Z,0.00
2019-02-15T13:30:45.386Z,0.00
2019-02-15T13:33:17.734Z,0.00
2019-02-15T13:35:50.096Z,0.00
2019-02-15T13:38:23.342Z,0.00
2019-02-15T13:40:55.819Z,0.00
2019-02-15T13:43:28.191Z,0.00
2019-02-15T13:46:00.783Z,0.00
2019-02-15T13:48:33.126Z,0.00
2019-02-15T13:51:05.609Z,0.00
2019-02-15T13:53:37.952Z,0.00
2019-02-15T13:56:10.332Z,0.00
2019-02-15T13:58:42.680Z,0.00
2019-02-15T14:01:15.045Z,0.00
2019-02-15T14:03:47.491Z,0.00
2019-02-15T14:06:20.058Z,0.00
2019-02-15T14:08:52.532Z,0.00
2019-02-15T14:11:24.943Z,0.00
2019-02-15T14:13:57.298Z,0.00
2019-02-15T14:16:29.838Z,0.00
2019-02-15T14:19:02.307Z,0.00
2019-02-15T14:21:43.937Z,0.00
2019-02-15T14:24:08.667Z,0.00
2019-02-15T14:26:41.033Z,0.00
2019-02-15T14:29:13.382Z,0.00
2019-02-15T14:31:45.862Z,0.00
2019-02-15T14:34:18.322Z,0.00
2019-02-15T14:36:50.698Z,0.00
2019-02-15T14:39:23.057Z,0.00
2019-02-15T14:41:55.444Z,0.00
2019-02-15T14:44:27.909Z,0.00
2019-02-15T14:47:00.465Z,0.00
2019-02-15T14:49:32.919Z,0.00
2019-02-15T14:52:05.406Z,0.00
2019-02-15T14:54:37.751Z,0.00
2019-02-15T14:57:10.251Z,0.00
2019-02-15T14:59:42.715Z,0.00
2019-02-15T15:02:15.278Z,0.00
2019-02-15T15:04:47.631Z,0.00
2019-02-15T15:07:20.177Z,0.00
2019-02-15T15:09:52.529Z,0.00
2019-02-15T15:12:24.941Z,0.00
2019-02-15T15:14:57.277Z,0.00
2019-02-15T15:17:29.825Z,0.00
2019-02-15T15:20:02.261Z,0.00
2019-02-15T15:22:34.653Z,0.00
2019-02-15T15:25:10.957Z,0.00
2019-02-15T15:27:43.540Z,0.00
2019-02-15T15:30:16.810Z,0.00
2019-02-15T15:32:49.307Z,0.00
2019-02-15T15:35:21.650Z,0.00
2019-02-15T15:37:54.121Z,0.00
2019-02-15T15:40:26.577Z,0.00
2019-02-15T15:42:58.967Z,0.00
2019-02-15T15:45:31.672Z,0.00
2019-02-15T15:48:04.638Z,0.00
2019-02-15T15:50:37.104Z,0.00
2019-02-15T15:53:09.483Z,0.00
2019-02-15T15:55:41.947Z,0.00
2019-02-15T15:58:14.369Z,0.00
2019-02-15T16:00:46.732Z,0.00
2019-02-15T16:03:19.115Z,0.00
2019-02-15T16:05:51.555Z,1.00
2019-02-15T16:08:24.102Z,1.00
2019-02-15T16:10:56.554Z,1.00
2019-02-15T16:13:28.920Z,1.00
2019-02-15T16:16:01.414Z,0.00
2019-02-15T16:18:35.136Z,8.00
2019-02-15T16:21:07.340Z,10.40
2019-02-15T16:23:40.258Z,9.20
2019-02-15T16:26:13.073Z,9.20
2019-02-15T16:28:45.462Z,8.40
2019-02-15T16:31:18.718Z,10.40
2019-02-15T16:33:51.025Z,13.60
2019-02-15T16:36:23.288Z,15.40
2019-02-15T16:38:55.585Z,15.20
2019-02-15T16:41:27.760Z,23.60
2019-02-15T16:44:00.268Z,30.00
2019-02-15T16:46:32.462Z,35.20
2019-02-15T16:49:04.841Z,36.60
2019-02-15T16:51:37.037Z,40.40
2019-02-15T16:54:09.562Z,43.25
2019-02-15T16:56:42.157Z,45.25
2019-02-15T16:59:14.630Z,45.00
2019-02-15T17:01:46.967Z,42.25
2019-02-15T17:04:19.191Z,44.25
2019-02-15T17:06:51.469Z,43.75
2019-02-15T17:09:23.835Z,44.50
2019-02-15T17:11:56.009Z,38.25
2019-02-15T17:14:28.212Z,42.00
2019-02-15T17:17:00.485Z,42.00
2019-02-15T17:19:32.857Z,42.25
2019-02-15T17:22:05.312Z,41.75
2019-02-15T17:24:37.520Z,40.00
2019-02-15T17:27:10.142Z,40.25
2019-02-15T17:29:42.329Z,36.25
2019-02-15T17:32:14.626Z,38.20
2019-02-15T17:34:47.126Z,36.00
2019-02-15T17:37:19.315Z,37.75
2019-02-15T17:39:52.036Z,39.25
2019-02-15T17:42:24.196Z,38.25
2019-02-15T17:44:56.544Z,38.60
2019-02-15T17:47:29.852Z,35.60
2019-02-15T17:50:02.356Z,33.80
2019-02-15T17:52:34.630Z,36.40
2019-02-15T17:55:08.359Z,32.80
2019-02-15T17:57:40.665Z,34.20
2019-02-15T18:00:17.747Z,34.80
2019-02-15T18:02:49.943Z,33.40
2019-02-15T18:05:22.247Z,32.20
2019-02-15T18:07:54.451Z,32.80
2019-02-15T18:10:26.884Z,33.40
2019-02-15T18:12:59.199Z,31.40
2019-02-15T18:15:31.514Z,33.20
2019-02-15T18:18:03.718Z,31.40
2019-02-15T18:20:36.212Z,32.80
2019-02-15T18:23:08.587Z,31.00
2019-02-15T18:25:40.911Z,29.60
2019-02-15T18:28:13.585Z,30.20
2019-02-15T18:30:45.820Z,29.60
2019-02-15T18:33:18.018Z,29.60
2019-02-15T18:35:50.249Z,32.20
2019-02-15T18:38:22.448Z,28.60
2019-02-15T18:40:55.021Z,26.80
2019-02-15T18:43:27.246Z,29.00
2019-02-15T18:45:59.477Z,29.40
2019-02-15T18:48:31.657Z,29.20
2019-02-15T18:51:04.132Z,27.80
2019-02-15T18:53:36.644Z,28.80
2019-02-15T18:56:08.875Z,29.00
2019-02-15T18:58:41.068Z,25.40
2019-02-15T19:01:13.884Z,26.20
2019-02-15T19:03:46.067Z,25.80
2019-02-15T19:06:19.181Z,23.00
2019-02-15T19:08:51.476Z,25.00
2019-02-15T19:11:24.708Z,24.40
2019-02-15T19:13:56.897Z,26.40
2019-02-15T19:16:29.127Z,22.40
2019-02-15T19:19:01.358Z,23.60
2019-02-15T19:21:33.870Z,23.00
2019-02-15T19:24:06.157Z,23.20
2019-02-15T19:26:38.374Z,22.20
2019-02-15T19:29:10.929Z,23.00
2019-02-15T19:31:43.131Z,23.00
2019-02-15T19:34:15.318Z,21.80
2019-02-15T19:36:49.739Z,20.80
2019-02-15T19:39:21.914Z,19.00
2019-02-15T19:41:54.116Z,18.60
2019-02-15T19:44:26.309Z,19.60
2019-02-15T19:46:58.518Z,19.60
2019-02-15T19:49:38.582Z,16.00
2019-02-15T19:52:04.709Z,16.40
2019-02-15T19:54:36.880Z,17.00
2019-02-15T19:57:09.197Z,19.00
2019-02-15T19:59:41.467Z,15.20
2019-02-15T20:02:14.000Z,14.00
2019-02-15T20:04:47.169Z,16.20
2019-02-15T20:07:19.477Z,16.80
2019-02-15T20:09:51.748Z,11.60
2019-02-15T20:12:24.346Z,14.40
2019-02-15T20:14:56.612Z,15.20
2019-02-15T20:17:28.926Z,17.20
2019-02-15T20:20:01.242Z,15.00
2019-02-15T20:22:34.780Z,15.00
2019-02-15T20:25:09.061Z,14.80
2019-02-15T20:27:41.379Z,14.00
2019-02-15T20:30:24.958Z,15.80
2019-02-15T20:32:57.374Z,13.40
2019-02-15T20:35:29.650Z,12.40
2019-02-15T20:38:01.974Z,12.40
2019-02-15T20:40:34.187Z,11.60
2019-02-15T20:43:06.496Z,12.40
2019-02-15T20:45:38.688Z,12.60
2019-02-15T20:48:12.763Z,12.20
2019-02-15T20:50:44.789Z,12.00
2019-02-15T20:53:17.151Z,11.40
2019-02-15T20:55:49.421Z,11.20
2019-02-15T20:58:21.639Z,10.80
2019-02-15T21:00:53.823Z,11.40
2019-02-15T21:03:25.999Z,11.00
2019-02-15T21:05:58.176Z,10.40
2019-02-15T21:08:30.507Z,11.20
2019-02-15T21:11:02.906Z,8.60
2019-02-15T21:13:35.441Z,10.00
2019-02-15T21:16:08.073Z,8.20
2019-02-15T21:18:40.273Z,10.00
2019-02-15T21:21:12.722Z,8.00
2019-02-15T21:23:45.295Z,8.20
2019-02-15T21:26:17.442Z,11.40
2019-02-15T21:28:49.967Z,9.40
2019-02-15T21:31:22.502Z,9.80
2019-02-15T21:33:54.898Z,8.00
2019-02-15T21:36:27.259Z,7.20
2019-02-15T21:38:59.667Z,7.60
2019-02-15T21:41:32.131Z,7.20
2019-02-15T21:44:04.621Z,8.00
2019-02-15T21:46:36.996Z,8.40
2019-02-15T21:49:09.389Z,7.00
2019-02-15T21:51:41.746Z,9.00
2019-02-15T21:54:14.127Z,8.00
2019-02-15T21:56:46.476Z,5.80
2019-02-15T21:59:19.983Z,5.80
2019-02-15T22:01:52.337Z,6.20
2019-02-15T22:04:24.735Z,6.60
2019-02-15T22:06:57.099Z,6.60
2019-02-15T22:09:29.499Z,5.40
2019-02-15T22:12:02.171Z,7.00
2019-02-15T22:14:34.754Z,6.40
2019-02-15T22:17:07.135Z,6.00
2019-02-15T22:19:39.523Z,6.00
2019-02-15T22:22:11.894Z,7.00
2019-02-15T22:24:44.274Z,5.40
2019-02-15T22:27:16.646Z,6.00
2019-02-15T22:29:49.019Z,4.60
2019-02-15T22:32:21.951Z,6.00
2019-02-15T22:34:54.668Z,5.80
2019-02-15T22:37:27.006Z,6.00
2019-02-15T22:39:59.390Z,5.60
2019-02-15T22:42:31.933Z,5.60
2019-02-15T22:45:04.443Z,5.40
2019-02-15T22:47:36.899Z,5.40
2019-02-15T22:50:09.402Z,4.60
2019-02-15T22:52:41.867Z,4.40
2019-02-15T22:55:14.271Z,4.20
2019-02-15T22:57:46.740Z,4.80
2019-02-15T23:00:34.844Z,4.00
2019-02-15T23:03:08.775Z,4.60
2019-02-15T23:05:41.281Z,3.00
2019-02-15T23:08:13.774Z,4.00
2019-02-15T23:10:46.295Z,4.20
2019-02-15T23:13:18.822Z,4.60
2019-02-15T23:15:51.523Z,3.00
2019-02-15T23:18:23.888Z,4.20
2019-02-15T23:20:56.386Z,3.40
2019-02-15T23:23:28.758Z,3.00
2019-02-15T23:26:01.259Z,3.40
2019-02-15T23:28:33.757Z,3.40
2019-02-15T23:31:06.235Z,3.40
2019-02-15T23:33:38.794Z,2.20
2019-02-15T23:36:11.219Z,3.00
2019-02-15T23:38:43.576Z,3.00
2019-02-15T23:41:15.963Z,2.20
2019-02-15T23:43:48.622Z,3.80
2019-02-15T23:46:21.032Z,2.00
2019-02-15T23:48:53.394Z,3.00
2019-02-15T23:51:25.811Z,2.40
2019-02-15T23:53:58.159Z,2.60
2019-02-15T23:56:30.544Z,3.40
2019-02-15T23:59:03.010Z,2.40
